createdAt,value
2018-11-23T00:04:15.691Z,96.88
2018-11-23T00:10:53.280Z,95.96
2018-11-23T00:17:35.236Z,96.63
2018-11-23T00:24:32.420Z,95.92
2018-11-23T00:33:48.047Z,96.32
2018-11-23T00:40:19.748Z,95.48
2018-11-23T00:47:07.990Z,95.92
2018-11-23T00:54:03.983Z,95.20
2018-11-23T01:00:37.919Z,95.49
2018-11-23T01:07:08.571Z,95.62
2018-11-23T01:13:36.497Z,95.33
2018-11-23T01:20:13.795Z,95.92
2018-11-23T01:26:49.380Z,95.46
2018-11-23T01:36:12.091Z,95.62
2018-11-23T01:42:34.749Z,95.69
2018-11-23T01:49:00.562Z,96.02
2018-11-23T01:55:38.390Z,95.65
2018-11-23T02:02:16.405Z,95.34
2018-11-23T02:08:48.335Z,95.58
2018-11-23T02:15:22.571Z,95.20
2018-11-23T02:21:49.036Z,95.13
2018-11-23T02:28:13.856Z,95.62
2018-11-23T02:38:03.669Z,95.27
2018-11-23T02:44:28.504Z,95.58
2018-11-23T02:50:56.332Z,95.37
2018-11-23T02:57:21.160Z,95.95
2018-11-23T03:03:47.014Z,95.43
2018-11-23T03:10:23.871Z,95.11
2018-11-23T03:17:02.103Z,94.96
2018-11-23T03:23:37.773Z,95.34
2018-11-23T03:30:20.734Z,95.21
2018-11-23T03:40:21.718Z,94.69
2018-11-23T03:47:01.629Z,95.20
2018-11-23T03:53:36.538Z,95.08
2018-11-23T04:00:25.590Z,94.86
2018-11-23T04:07:02.888Z,95.05
2018-11-23T04:13:28.347Z,94.88
2018-11-23T04:19:54.158Z,94.87
2018-11-23T04:26:24.638Z,95.19
2018-11-23T04:32:41.758Z,95.57
2018-11-23T04:42:21.793Z,95.62
2018-11-23T04:49:00.469Z,95.22
2018-11-23T04:55:37.401Z,95.22
2018-11-23T05:02:15.035Z,94.80
2018-11-23T05:08:54.278Z,94.91
2018-11-23T05:15:22.143Z,94.58
2018-11-23T05:18:15.830Z,95.27
2018-11-23T05:24:50.739Z,95.38
2018-11-23T05:31:26.711Z,95.20
2018-11-23T05:38:04.604Z,94.75
2018-11-23T05:44:30.449Z,95.12
2018-11-23T05:51:07.349Z,95.28
2018-11-23T05:57:46.302Z,94.82
2018-11-23T06:04:10.101Z,94.95
2018-11-23T06:10:32.997Z,95.96
2018-11-23T06:16:55.679Z,95.27
2018-11-23T06:23:24.527Z,96.03
2018-11-23T06:29:49.341Z,95.53
2018-11-23T06:36:12.299Z,96.28
2018-11-23T06:46:25.185Z,95.99
2018-11-23T06:52:49.331Z,95.82
2018-11-23T06:59:15.888Z,95.82
2018-11-23T07:05:40.638Z,97.08
2018-11-23T07:12:06.486Z,97.21
2018-11-23T07:18:29.411Z,97.26
2018-11-23T07:24:55.090Z,97.35
2018-11-23T07:31:19.893Z,97.50
2018-11-23T07:37:45.712Z,97.37
2018-11-23T07:47:57.841Z,97.57
2018-11-23T07:54:21.568Z,98.26
2018-11-23T08:00:43.346Z,98.52
2018-11-23T08:07:07.190Z,98.56
2018-11-23T08:13:18.852Z,98.32
2018-11-23T08:19:47.425Z,98.59
2018-11-23T08:26:16.889Z,99.21
2018-11-23T08:32:44.368Z,99.26
2018-11-23T08:39:08.167Z,99.27
2018-11-23T08:49:23.261Z,100.00
2018-11-23T08:55:55.138Z,100.00
2018-11-23T09:02:19.950Z,100.00
2018-11-23T09:08:43.748Z,100.00
2018-11-23T09:15:06.560Z,100.00
2018-11-23T09:21:30.518Z,100.00
2018-11-23T09:27:57.208Z,100.00
2018-11-23T09:34:23.131Z,100.00
2018-11-23T09:40:48.164Z,100.00
2018-11-23T09:50:38.688Z,100.00
2018-11-23T09:57:03.459Z,100.00
2018-11-23T10:03:27.299Z,100.00
2018-11-23T10:10:05.321Z,100.00
2018-11-23T10:16:44.146Z,100.00
2018-11-23T10:23:11.033Z,100.00
2018-11-23T10:29:32.761Z,100.00
2018-11-23T10:35:58.625Z,100.00
2018-11-23T10:42:21.467Z,100.00
2018-11-23T10:52:44.544Z,100.00
2018-11-23T10:59:09.639Z,100.00
2018-11-23T11:05:51.399Z,100.00
2018-11-23T11:12:19.294Z,100.00
2018-11-23T11:18:55.050Z,100.00
2018-11-23T11:25:32.776Z,100.00
2018-11-23T11:32:12.021Z,100.00
2018-11-23T11:38:52.265Z,100.00
2018-11-23T11:45:29.176Z,100.00
2018-11-23T11:51:30.450Z,100.00
2018-11-23T11:58:05.368Z,100.00
2018-11-23T12:04:29.167Z,100.00
2018-11-23T12:10:52.959Z,100.00
2018-11-23T12:17:16.762Z,100.00
2018-11-23T12:23:41.637Z,100.00
2018-11-23T12:30:05.429Z,100.00
2018-11-23T12:36:28.159Z,100.00
2018-11-23T12:43:05.088Z,100.00
2018-11-23T12:49:28.894Z,100.00
2018-11-23T12:55:20.389Z,100.00
2018-11-23T13:01:33.057Z,100.00
2018-11-23T13:07:58.882Z,100.00
2018-11-23T13:14:23.712Z,100.00
2018-11-23T13:20:46.478Z,100.00
2018-11-23T13:27:16.406Z,100.00
2018-11-23T13:33:41.102Z,100.00
2018-11-23T13:40:05.269Z,100.00
2018-11-23T13:46:30.749Z,100.00
2018-11-23T13:53:00.647Z,100.00
2018-11-23T14:03:13.048Z,100.00
2018-11-23T14:09:36.829Z,100.00
2018-11-23T14:16:02.296Z,100.00
2018-11-23T14:22:26.100Z,100.00
2018-11-23T14:28:50.306Z,100.00
2018-11-23T14:35:14.107Z,100.00
2018-11-23T14:41:37.855Z,100.00
2018-11-23T14:48:16.462Z,100.00
2018-11-23T14:54:53.725Z,100.00
2018-11-23T15:04:31.148Z,100.00
2018-11-23T15:11:10.101Z,100.00
2018-11-23T15:17:35.901Z,100.00
2018-11-23T15:24:00.892Z,100.00
2018-11-23T15:30:27.541Z,100.00
2018-11-23T15:36:56.369Z,100.00
2018-11-23T15:58:53.672Z,100.00
2018-11-23T16:19:36.763Z,100.00
2018-11-23T16:40:15.399Z,100.00
2018-11-23T17:00:51.258Z,100.00
2018-11-23T17:21:32.935Z,100.00
2018-11-23T17:42:11.215Z,100.00
2018-11-23T18:02:51.313Z,100.00
2018-11-23T18:23:30.368Z,100.00
2018-11-23T18:44:08.612Z,100.00
2018-11-23T19:04:46.031Z,100.00
2018-11-23T19:25:25.094Z,100.00
2018-11-23T19:46:05.788Z,100.00
2018-11-23T20:06:42.869Z,100.00
2018-11-23T20:27:20.227Z,100.00
2018-11-23T20:48:00.519Z,100.00
2018-11-23T21:08:37.836Z,100.00
2018-11-23T21:29:16.999Z,100.00
2018-11-23T21:49:59.401Z,100.00
2018-11-23T22:10:36.350Z,100.00
2018-11-23T22:31:13.772Z,100.00
2018-11-23T22:51:52.012Z,100.00
2018-11-23T23:12:29.027Z,100.00
2018-11-23T23:33:05.630Z,100.00
2018-11-23T23:53:45.935Z,100.00
